Flight Track Log - Related Links

Times and Time Zones

All times are in EDT time to prevent confusion due to time zone crossing. See the N468ER flight status page for this flight to view local times or setup timezone preferences in your user account.


Time Position Orientation Groundspeed Altitude Reporting Facility
EDT Latitude Longitude Course Direction KTS MPH feet Rate Location/Type
Thu 11:56:39 AM 44.6075 -108.9686 18° North 78 90 7,500  Level Salt Lake Center
Thu 11:57:41 AM 44.6289 -108.9586 18° North 79 91 7,900 339 Climbing Salt Lake Center
Thu 11:58:43 AM 44.6522 -108.9542 North 81 93 8,200 339 Climbing Salt Lake Center
Thu 11:59:45 AM 44.6772 -108.9483 North 84 97 8,600 339 Climbing Salt Lake Center
Thu 12:00:47 PM 44.7014 -108.9414 12° North 87 100 8,900 286 Climbing Salt Lake Center
Thu 12:01:51 PM 44.7300 -108.9328 12° North 88 101 9,200 286 Climbing Salt Lake Center
Thu 12:02:53 PM 44.7547 -108.9247 13° North 89 102 9,500 339 Climbing Salt Lake Center
Thu 12:03:55 PM 44.7797 -108.9181 11° North 90 104 9,900 290 Climbing Salt Lake Center
Thu 12:04:57 PM 44.8044 -108.9108 12° North 91 105 10,100 97 Climbing Salt Lake Center
Thu 12:05:59 PM 44.8308 -108.9022 13° North 93 107 10,100  Level Salt Lake Center
Thu 12:07:01 PM 44.8669 -108.8897 14° North 101 116 10,100  Level Salt Lake Center
Thu 12:08:03 PM 44.8972 -108.8806 12° North 106 122 10,100  Level Salt Lake Center
Thu 12:09:05 PM 44.9261 -108.8722 12° North 107 123 10,100  Level Salt Lake Center
Thu 12:10:07 PM 44.9561 -108.8636 11° North 108 124 10,100  Level Salt Lake Center
Thu 12:11:09 PM 44.9858 -108.8547 12° North 109 125 10,100  Level Salt Lake Center
Thu 12:12:11 PM 45.0144 -108.8444 14° North 108 124 10,100 -48 Level Salt Lake Center
Thu 12:13:13 PM 45.0503 -108.8339 12° North 109 125 10,000 -48 Descending Salt Lake Center
Thu 12:14:15 PM 45.0808 -108.8269 North 109 125 10,000 48 Level Salt Lake Center
Thu 12:15:17 PM 45.1108 -108.8192 10° North 106 122 10,100 48 Climbing Salt Lake Center
Thu 12:16:19 PM 45.1419 -108.8122 North 113 130 10,100  Level Salt Lake Center
Thu 12:17:21 PM 45.1753 -108.8039 10° North 114 131 10,100 48 Level Salt Lake Center
Thu 12:18:23 PM 45.2061 -108.7953 11° North 113 130 10,200 -48 Climbing Salt Lake Center
Thu 12:19:25 PM 45.2400 -108.7847 12° North 116 133 10,000 -48 Descending Salt Lake Center
Thu 12:20:27 PM 45.2703 -108.7772 10° North 112 129 10,100 48 Climbing Salt Lake Center
Thu 12:21:29 PM 45.3036 -108.7672 12° North 114 131 10,100  Level Salt Lake Center
Thu 12:22:32 PM 45.3347 -108.7594 10° North 115 132 10,100 -48 Level Salt Lake Center
Thu 12:23:34 PM 45.3689 -108.7492 12° North 117 135 10,000  Descending Salt Lake Center
Thu 12:24:36 PM 45.3994 -108.7392 13° North 115 132 10,100 48 Climbing Salt Lake Center
Thu 12:25:38 PM 45.4328 -108.7289 12° North 114 131 10,100 -290 Level Salt Lake Center
Thu 12:26:40 PM 45.4581 -108.7044 34° Northeast 113 130 9,500 -581 Descending Salt Lake Center
Thu 12:27:42 PM 45.4811 -108.6661 49° Northeast 117 135 8,900 -774 Descending Salt Lake Center
Thu 12:28:44 PM 45.4986 -108.6317 54° Northeast 110 127 7,900 -919 Descending Salt Lake Center
Thu 12:29:46 PM 45.5233 -108.6025 40° Northeast 108 124 7,000 -435 Descending Salt Lake Center
Thu 12:30:48 PM 45.5436 -108.5736 45° Northeast 103 119 7,000 48 Level Salt Lake Center
Thu 12:31:50 PM 45.5408 -108.5350 96° East 94 108 7,100 -194 Climbing Salt Lake Center
Thu 12:32:52 PM 45.5517 -108.4986 67° East 99 114 6,600 -290 Descending Salt Lake Center
Thu 12:33:54 PM 45.5614 -108.4589 71° East 99 114 6,500 -145 Descending Salt Lake Center
Thu 12:34:56 PM 45.5719 -108.4219 68° East 103 119 6,300  Descending Salt Lake Center
Thu 12:35:58 PM 45.5969 -108.4033 28° Northeast 97 112 6,500 97 Climbing Salt Lake Center
Thu 12:37:00 PM 45.6167 -108.3736 47° Northeast 100 115 6,500 -48 Level Salt Lake Center
Thu 12:38:02 PM 45.6292 -108.3414 61° Northeast 94 108 6,400 -339 Descending Salt Lake Center
Thu 12:39:04 PM 45.6500 -108.3153 41° Northeast 94 108 5,800 -290 Descending Salt Lake Center
Thu 12:40:06 PM 45.6725 -108.2953 32° Northeast 97 112 5,800 -48 Level Salt Lake Center
Thu 12:41:08 PM 45.6978 -108.2778 26° Northeast 93 107 5,700 48 Descending Salt Lake Center
Thu 12:42:10 PM 45.7228 -108.2647 20° North 98 113 5,900 48 Climbing Salt Lake Center
Thu 12:43:12 PM 45.7536 -108.2586 North 104 120 5,800 -97 Descending Salt Lake Center
Thu 12:44:14 PM 45.7814 -108.2617 356° North 101 116 5,700 -290 Descending Salt Lake Center
Thu 12:45:16 PM 45.7914 -108.3097 287° West 119 137 5,200 -194 Descending Salt Lake Center
Thu 12:46:18 PM 45.7939 -108.3569 274° West 120 138 5,300 -145 Climbing Salt Lake Center
Thu 12:47:20 PM 45.7953 -108.4069 272° West 117 135 4,900 -480 Descending Salt Lake Center
Thu 12:48:23 PM 45.7972 -108.4517 274° West 115 132 4,300 -432 Descending Salt Lake Center
Thu 12:49:25 PM 45.8000 -108.4939 275° West 103 119 4,000 48 Descending Salt Lake Center
Thu 12:50:27 PM 45.8058 -108.5339 282° West 103 119 4,400 532 Climbing Salt Lake Center
Thu 12:51:29 PM 45.8094 -108.5769 277° West 101 116 5,100 532 Climbing Salt Lake Center
Thu 12:52:31 PM 45.7925 -108.6028 227° Southwest 105 121 5,500 484 Climbing Salt Lake Center
Thu 12:53:33 PM 45.7789 -108.5758 126° Southeast 88 101 6,100 387 Climbing Salt Lake Center
Thu 12:54:35 PM 45.7958 -108.5528 43° Northeast 88 101 6,300 387 Climbing Salt Lake Center
Thu 12:55:37 PM 45.8172 -108.5269 40° Northeast 94 108 6,900 387 Climbing Salt Lake Center
Thu 12:56:39 PM 45.8403 -108.5033 36° Northeast 97 112 7,100 48 Climbing Salt Lake Center
Thu 12:57:41 PM 45.8603 -108.4778 42° Northeast 97 112 7,000 -48 Descending Salt Lake Center
Thu 12:58:43 PM 45.8853 -108.4531 35° Northeast 100 115 7,000 48 Level Salt Lake Center
Thu 12:59:45 PM 45.9117 -108.4378 22° Northeast 108 124 7,100 48 Climbing Salt Lake Center
Thu 01:00:47 PM 45.9342 -108.4144 36° Northeast 100 115 7,100  Level Salt Lake Center

Login

Don't have an account? Register now (free) for customized features, flight alerts, and more!